sensor_id;sensor_type;location;lat;lon;timestamp;pressure;altitude;pressure_sealevel;temperature
61189;BMP280;47054;39.716;2.904;2023-08-01T19:14:41;99856.81;;;30.30
61189;BMP280;47054;39.716;2.904;2023-08-01T19:17:25;99852.16;;;30.59
61189;BMP280;47054;39.716;2.904;2023-08-01T19:20:10;99842.97;;;30.77
61189;BMP280;47054;39.716;2.904;2023-08-01T19:22:55;99847.31;;;30.98
61189;BMP280;47054;39.716;2.904;2023-08-01T19:25:39;99859.66;;;31.08
61189;BMP280;47054;39.716;2.904;2023-08-01T19:28:24;99868.97;;;31.16
61189;BMP280;47054;39.716;2.904;2023-08-01T19:31:08;99872.28;;;31.20
61189;BMP280;47054;39.716;2.904;2023-08-01T19:33:54;99863.09;;;31.23
61189;BMP280;47054;39.716;2.904;2023-08-01T19:36:38;99864.88;;;31.26
61189;BMP280;47054;39.716;2.904;2023-08-01T19:39:23;99873.84;;;31.27
61189;BMP280;47054;39.716;2.904;2023-08-01T19:42:11;99870.34;;;31.26
61189;BMP280;47054;39.716;2.904;2023-08-01T19:44:55;99879.34;;;31.27
61189;BMP280;47054;39.716;2.904;2023-08-01T19:47:39;99882.38;;;31.29
61189;BMP280;47054;39.716;2.904;2023-08-01T19:50:24;99882.06;;;31.27
61189;BMP280;47054;39.716;2.904;2023-08-01T19:53:09;99896.81;;;31.29
61189;BMP280;47054;39.716;2.904;2023-08-01T19:55:53;99893.31;;;31.29
61189;BMP280;47054;39.716;2.904;2023-08-01T19:58:38;99898.25;;;31.25
61189;BMP280;47054;39.716;2.904;2023-08-01T20:01:23;99901.25;;;31.27
61189;BMP280;47054;39.716;2.904;2023-08-01T20:04:08;99905.22;;;31.26
61189;BMP280;47054;39.716;2.904;2023-08-01T20:06:53;99910.72;;;31.26
61189;BMP280;47054;39.716;2.904;2023-08-01T20:09:38;99896.88;;;31.15
61189;BMP280;47054;39.716;2.904;2023-08-01T20:12:22;99907.13;;;31.20
61189;BMP280;47054;39.716;2.904;2023-08-01T20:15:07;99909.31;;;31.16
61189;BMP280;47054;39.716;2.904;2023-08-01T20:17:52;99908.28;;;31.13
61189;BMP280;47054;39.716;2.904;2023-08-01T20:20:37;99924.16;;;31.09
61189;BMP280;47054;39.716;2.904;2023-08-01T20:23:22;99915.38;;;31.05
61189;BMP280;47054;39.716;2.904;2023-08-01T20:26:07;99915.56;;;31.02
61189;BMP280;47054;39.716;2.904;2023-08-01T20:28:51;99919.22;;;30.99
61189;BMP280;47054;39.716;2.904;2023-08-01T20:31:36;99919.91;;;30.94
61189;BMP280;47054;39.716;2.904;2023-08-01T20:34:21;99921.63;;;30.91
61189;BMP280;47054;39.716;2.904;2023-08-01T20:37:05;99915.59;;;30.87
61189;BMP280;47054;39.716;2.904;2023-08-01T20:39:50;99910.94;;;30.78
61189;BMP280;47054;39.716;2.904;2023-08-01T20:42:34;99924.91;;;30.81
61189;BMP280;47054;39.716;2.904;2023-08-01T20:45:19;99923.88;;;30.78
61189;BMP280;47054;39.716;2.904;2023-08-01T20:48:03;99917.53;;;30.72
61189;BMP280;47054;39.716;2.904;2023-08-01T20:50:48;99919.84;;;30.73
61189;BMP280;47054;39.716;2.904;2023-08-01T20:53:32;99918.78;;;30.71
61189;BMP280;47054;39.716;2.904;2023-08-01T20:56:17;99920.19;;;30.66
61189;BMP280;47054;39.716;2.904;2023-08-01T20:59:02;99924.91;;;30.66
61189;BMP280;47054;39.716;2.904;2023-08-01T21:01:46;99912.16;;;30.63
61189;BMP280;47054;39.716;2.904;2023-08-01T21:04:31;99919.34;;;30.60
61189;BMP280;47054;39.716;2.904;2023-08-01T21:07:15;99913.19;;;30.51
61189;BMP280;47054;39.716;2.904;2023-08-01T21:10:00;99918.78;;;30.56
61189;BMP280;47054;39.716;2.904;2023-08-01T21:12:44;99920.44;;;30.54
61189;BMP280;47054;39.716;2.904;2023-08-01T21:15:29;99896.56;;;30.40
61189;BMP280;47054;39.716;2.904;2023-08-01T21:18:15;99917.63;;;30.48
61189;BMP280;47054;39.716;2.904;2023-08-01T21:20:59;99914.59;;;30.46
61189;BMP280;47054;39.716;2.904;2023-08-01T21:23:45;99915.81;;;30.45
61189;BMP280;47054;39.716;2.904;2023-08-01T21:26:30;99918.22;;;30.43
61189;BMP280;47054;39.716;2.904;2023-08-01T21:29:14;99916.75;;;30.42
61189;BMP280;47054;39.716;2.904;2023-08-01T21:31:59;99919.94;;;30.41
61189;BMP280;47054;39.716;2.904;2023-08-01T21:34:43;99910.69;;;30.38
61189;BMP280;47054;39.716;2.904;2023-08-01T21:37:28;99906.47;;;30.37
61189;BMP280;47054;39.716;2.904;2023-08-01T21:40:13;99918.63;;;30.36
61189;BMP280;47054;39.716;2.904;2023-08-01T21:42:58;99915.41;;;30.38
61189;BMP280;47054;39.716;2.904;2023-08-01T21:45:44;99900.56;;;30.30
61189;BMP280;47054;39.716;2.904;2023-08-01T21:48:28;99918.91;;;30.38
61189;BMP280;47054;39.716;2.904;2023-08-01T21:51:13;99903.44;;;30.35
61189;BMP280;47054;39.716;2.904;2023-08-01T21:53:58;99907.88;;;30.33
61189;BMP280;47054;39.716;2.904;2023-08-01T21:56:43;99902.78;;;30.26
61189;BMP280;47054;39.716;2.904;2023-08-01T21:59:27;99916.97;;;30.30
61189;BMP280;47054;39.716;2.904;2023-08-01T22:05:16;99914.44;;;30.26
61189;BMP280;47054;39.716;2.904;2023-08-01T22:08:01;99920.38;;;30.25
61189;BMP280;47054;39.716;2.904;2023-08-01T22:10:56;99904.91;;;30.22
61189;BMP280;47054;39.716;2.904;2023-08-01T22:13:42;99907.81;;;30.18
61189;BMP280;47054;39.716;2.904;2023-08-01T22:16:27;99910.75;;;30.15
61189;BMP280;47054;39.716;2.904;2023-08-01T22:19:12;99908.19;;;30.11
61189;BMP280;47054;39.716;2.904;2023-08-01T22:21:57;99907.16;;;30.09
61189;BMP280;47054;39.716;2.904;2023-08-01T22:24:41;99907.31;;;30.05
61189;BMP280;47054;39.716;2.904;2023-08-01T22:27:25;99910.22;;;30.02
61189;BMP280;47054;39.716;2.904;2023-08-01T22:30:10;99911.72;;;30.03
61189;BMP280;47054;39.716;2.904;2023-08-01T22:32:55;99917.69;;;30.01
61189;BMP280;47054;39.716;2.904;2023-08-01T22:35:42;99919.66;;;30.01
61189;BMP280;47054;39.716;2.904;2023-08-01T22:38:27;99923.59;;;30.00
61189;BMP280;47054;39.716;2.904;2023-08-01T22:41:17;99916.94;;;30.01
61189;BMP280;47054;39.716;2.904;2023-08-01T22:44:01;99921.34;;;29.98
61189;BMP280;47054;39.716;2.904;2023-08-01T22:46:46;99924.78;;;29.99
61189;BMP280;47054;39.716;2.904;2023-08-01T22:49:30;99922.56;;;29.97
61189;BMP280;47054;39.716;2.904;2023-08-01T22:52:15;99925.28;;;29.97
61189;BMP280;47054;39.716;2.904;2023-08-01T22:55:00;99935.94;;;29.95
61189;BMP280;47054;39.716;2.904;2023-08-01T22:57:46;99930.16;;;29.93
61189;BMP280;47054;39.716;2.904;2023-08-01T23:00:30;99930.63;;;29.92
61189;BMP280;47054;39.716;2.904;2023-08-01T23:03:15;99926.69;;;29.93
61189;BMP280;47054;39.716;2.904;2023-08-01T23:05:59;99935.34;;;29.91
61189;BMP280;47054;39.716;2.904;2023-08-01T23:08:44;99927.91;;;29.92
61189;BMP280;47054;39.716;2.904;2023-08-01T23:11:29;99937.31;;;29.91
61189;BMP280;47054;39.716;2.904;2023-08-01T23:14:13;99934.88;;;29.93
61189;BMP280;47054;39.716;2.904;2023-08-01T23:16:58;99934.13;;;29.92
61189;BMP280;47054;39.716;2.904;2023-08-01T23:19:43;99921.09;;;29.87
61189;BMP280;47054;39.716;2.904;2023-08-01T23:22:27;99923.81;;;29.87
61189;BMP280;47054;39.716;2.904;2023-08-01T23:25:12;99923.09;;;29.87
61189;BMP280;47054;39.716;2.904;2023-08-01T23:27:57;99929.75;;;29.86
61189;BMP280;47054;39.716;2.904;2023-08-01T23:30:42;99928.44;;;29.81
61189;BMP280;47054;39.716;2.904;2023-08-01T23:33:28;99932.22;;;29.84
61189;BMP280;47054;39.716;2.904;2023-08-01T23:36:13;99930.25;;;29.84
61189;BMP280;47054;39.716;2.904;2023-08-01T23:38:57;99934.94;;;29.84
61189;BMP280;47054;39.716;2.904;2023-08-01T23:41:42;99928.22;;;29.85
61189;BMP280;47054;39.716;2.904;2023-08-01T23:44:27;99926.75;;;29.84
61189;BMP280;47054;39.716;2.904;2023-08-01T23:47:13;99927.19;;;29.82
61189;BMP280;47054;39.716;2.904;2023-08-01T23:49:58;99928.59;;;29.78
61189;BMP280;47054;39.716;2.904;2023-08-01T23:52:43;99928.59;;;29.78
61189;BMP280;47054;39.716;2.904;2023-08-01T23:55:27;99928.59;;;29.78
61189;BMP280;47054;39.716;2.904;2023-08-01T23:58:13;99924.34;;;29.77
